Priddy, Texas
Current Conditions -  °F | °C
As of 7:15 AM on Saturday 25 Oct 2014 (Local Time) from KMKN Reporting Station
Clear Clear  
Wind Chill: 67°   Ceiling: Unl
Heat Index: 67°   Visibility: 10mi
Dew Point: 59°   Wind: 9mph
Humidity: 74%   Direction: 230°SW
Pressure: 30.12"   Gusts: NA
Location:  31.68°N, 98.51°W
Report Text: KMKN 251215Z AUTO 23008KT 10SM CLR 20/15 A3012 RMK AO2 T01950148
Loading
Personal Weather Stations






























Interactive Weather Map
Tropical Storm Tracking
New forecast layout! Learn more

10-Day Weather Forecast

Advertisements
Track Severe Weather on mobile